createdAt,value
2022-11-21T00:00:07.151Z,99647.66
2022-11-21T00:10:09.104Z,99629.88
2022-11-21T00:20:13.833Z,99616.00
2022-11-21T00:30:15.522Z,99610.09
2022-11-21T00:40:18.684Z,99576.97
2022-11-21T00:50:22.272Z,99579.00
2022-11-21T01:00:24.992Z,99578.66
2022-11-21T01:10:26.708Z,99581.78
2022-11-21T01:20:28.374Z,99568.28
2022-11-21T01:30:31.110Z,99569.72
2022-11-21T01:40:38.746Z,99550.91
2022-11-21T01:50:40.846Z,99544.19
2022-11-21T02:00:47.198Z,99549.88
2022-11-21T02:11:07.088Z,99567.09
2022-11-21T02:21:24.042Z,99542.56
2022-11-21T02:31:25.605Z,99535.69
2022-11-21T02:41:34.193Z,99538.22
2022-11-21T02:51:35.777Z,99539.19
2022-11-21T03:01:37.549Z,99546.41
2022-11-21T03:11:43.729Z,99549.69
2022-11-21T03:21:45.265Z,99536.78
2022-11-21T03:31:47.128Z,99530.88
2022-11-21T03:41:50.155Z,99515.78
2022-11-21T03:51:51.826Z,99505.47
2022-11-21T04:01:53.876Z,99483.91
2022-11-21T04:11:55.577Z,99492.06
2022-11-21T04:21:57.225Z,99489.34
2022-11-21T04:31:58.920Z,99480.63
2022-11-21T04:42:04.713Z,99469.78
2022-11-21T04:52:06.470Z,99461.72
2022-11-21T05:02:08.339Z,99451.16
2022-11-21T05:12:29.964Z,99447.56
2022-11-21T05:22:37.728Z,99455.59
2022-11-21T05:32:39.560Z,99453.00
2022-11-21T05:43:03.833Z,99451.41
2022-11-21T05:53:12.290Z,99448.19
2022-11-21T06:03:27.189Z,99448.78
2022-11-21T06:13:30.204Z,99452.63
2022-11-21T06:23:33.565Z,99439.06
2022-11-21T06:33:37.438Z,99451.31
2022-11-21T06:43:39.568Z,99465.31
2022-11-21T06:53:41.183Z,99474.06
2022-11-21T07:03:42.836Z,99491.41
2022-11-21T07:13:46.538Z,99500.66
2022-11-21T07:23:48.824Z,99486.25
2022-11-21T07:33:50.469Z,99503.88
2022-11-21T07:43:54.189Z,99498.41
2022-11-21T07:54:03.855Z,99511.84
2022-11-21T08:04:11.413Z,99530.81
2022-11-21T08:14:12.992Z,99532.66
2022-11-21T08:24:15.796Z,99523.00
2022-11-21T08:34:17.437Z,99525.72
2022-11-21T08:44:19.013Z,99533.72
2022-11-21T08:54:24.481Z,99553.63
2022-11-21T09:04:26.540Z,99532.00
2022-11-21T09:14:54.891Z,99527.75
2022-11-21T09:24:56.745Z,99537.09
2022-11-21T09:35:03.948Z,99519.56
2022-11-21T09:45:23.878Z,99537.72
2022-11-21T09:55:56.427Z,99537.56
2022-11-21T10:06:22.801Z,99539.94
2022-11-21T10:16:44.861Z,99509.84
2022-11-21T10:26:59.530Z,99474.56
2022-11-21T10:37:37.038Z,99495.56
2022-11-21T10:47:39.116Z,99493.56
2022-11-21T10:57:52.364Z,99480.81
2022-11-21T11:08:11.453Z,99493.91
2022-11-21T11:18:14.642Z,99475.06
2022-11-21T11:28:19.343Z,99469.09
2022-11-21T11:38:26.712Z,99454.84
2022-11-21T11:48:29.459Z,99449.41
2022-11-21T11:58:43.707Z,99430.50
2022-11-21T12:08:59.866Z,99412.66
2022-11-21T12:19:11.105Z,99394.84
2022-11-21T12:29:47.119Z,99376.91
2022-11-21T12:40:07.225Z,99380.34
2022-11-21T12:50:43.110Z,99369.19
2022-11-21T13:01:20.898Z,99372.16
2022-11-21T13:11:55.089Z,99378.13
2022-11-21T13:21:57.020Z,99379.53
2022-11-21T13:31:58.783Z,99379.44
2022-11-21T13:42:20.649Z,99384.44
2022-11-21T13:53:08.666Z,99388.81
2022-11-21T14:03:58.797Z,99387.22
2022-11-21T14:14:02.028Z,99386.25
2022-11-21T14:24:14.556Z,99377.78
2022-11-21T14:34:28.717Z,99390.31
2022-11-21T14:44:30.973Z,99387.41
2022-11-21T14:55:29.738Z,99404.31
2022-11-21T15:06:00.180Z,99418.66
2022-11-21T15:15:55.481Z,99411.69
2022-11-21T15:26:01.447Z,99428.72
2022-11-21T15:36:13.993Z,99438.00
2022-11-21T15:46:32.162Z,99439.78
2022-11-21T15:56:34.428Z,99450.81
2022-11-21T16:06:36.417Z,99449.16
2022-11-21T16:16:43.118Z,99412.44
2022-11-21T16:26:45.062Z,99433.03
2022-11-21T16:36:47.855Z,99422.72
2022-11-21T16:46:51.916Z,99428.56
2022-11-21T16:56:57.430Z,99411.34
2022-11-21T17:07:03.585Z,99411.03
2022-11-21T17:17:11.604Z,99415.81
2022-11-21T17:27:14.307Z,99442.50
2022-11-21T17:37:16.355Z,99439.97
2022-11-21T17:47:21.471Z,99408.47
2022-11-21T17:57:23.779Z,99437.66
2022-11-21T18:07:25.835Z,99443.69
2022-11-21T18:17:39.365Z,99426.53
2022-11-21T18:27:42.502Z,99445.09
2022-11-21T18:37:44.264Z,99430.56
2022-11-21T18:47:47.917Z,99421.75
2022-11-21T18:57:50.585Z,99426.81
2022-11-21T19:07:59.760Z,99428.38
2022-11-21T19:18:14.538Z,99420.69
2022-11-21T19:28:18.636Z,99418.13
2022-11-21T19:38:25.114Z,99445.22
2022-11-21T19:48:30.830Z,99374.16
2022-11-21T19:58:49.769Z,99435.69
2022-11-21T20:09:04.348Z,99448.53
2022-11-21T20:29:42.051Z,99452.22
2022-11-21T20:39:54.258Z,99451.44
2022-11-21T20:49:56.493Z,99448.94
2022-11-21T20:59:59.934Z,99442.91
2022-11-21T21:10:01.861Z,99431.81
2022-11-21T21:20:04.204Z,99421.63
2022-11-21T21:30:12.812Z,99399.50
2022-11-21T21:40:19.721Z,99390.25
2022-11-21T21:50:23.560Z,99376.53
2022-11-21T22:00:25.172Z,99394.31
2022-11-21T22:10:34.407Z,99396.09
2022-11-21T22:20:36.082Z,99396.22
2022-11-21T22:30:37.787Z,99402.72
2022-11-21T22:40:46.615Z,99416.22
2022-11-21T22:50:48.250Z,99418.09
2022-11-21T23:00:50.973Z,99413.53
2022-11-21T23:10:52.966Z,99400.69
2022-11-21T23:20:55.950Z,99386.50
2022-11-21T23:30:57.856Z,99370.94
2022-11-21T23:40:59.529Z,99363.50
2022-11-21T23:51:01.254Z,99362.91
